createdAt,value
2022-09-23T00:04:04.811Z,6.87
2022-09-23T00:09:07.120Z,6.91
2022-09-23T00:14:10.162Z,6.96
2022-09-23T00:19:12.501Z,6.93
2022-09-23T00:24:15.722Z,6.87
2022-09-23T00:29:18.012Z,6.86
2022-09-23T00:34:20.534Z,6.82
2022-09-23T00:39:23.813Z,6.73
2022-09-23T00:44:29.062Z,6.73
2022-09-23T00:49:31.395Z,6.77
2022-09-23T00:54:33.963Z,6.76
2022-09-23T00:59:36.815Z,6.81
2022-09-23T01:04:39.809Z,6.86
2022-09-23T01:09:42.557Z,6.87
2022-09-23T01:14:52.767Z,6.91
2022-09-23T01:20:03.230Z,6.95
2022-09-23T01:25:16.643Z,6.97
2022-09-23T01:30:21.866Z,6.96
2022-09-23T01:35:25.120Z,6.93
2022-09-23T01:40:33.961Z,6.90
2022-09-23T01:45:43.366Z,6.90
2022-09-23T01:50:54.146Z,6.88
2022-09-23T01:56:00.247Z,6.82
2022-09-23T02:01:04.951Z,6.72
2022-09-23T02:06:11.169Z,6.61
2022-09-23T02:11:18.034Z,6.50
2022-09-23T02:16:21.705Z,6.36
2022-09-23T02:21:27.391Z,6.26
2022-09-23T02:26:33.738Z,6.19
2022-09-23T02:31:39.414Z,6.15
2022-09-23T02:36:49.526Z,6.11
2022-09-23T02:41:58.921Z,6.08
2022-09-23T02:47:01.482Z,6.05
2022-09-23T02:52:05.488Z,5.99
2022-09-23T02:57:08.206Z,5.91
2022-09-23T03:02:14.570Z,5.84
2022-09-23T03:07:17.942Z,5.82
2022-09-23T03:12:31.712Z,5.81
2022-09-23T03:17:38.034Z,5.76
2022-09-23T03:22:44.873Z,5.71
2022-09-23T03:27:47.203Z,5.68
2022-09-23T03:32:51.233Z,5.65
2022-09-23T03:37:56.644Z,5.61
2022-09-23T03:43:00.282Z,5.56
2022-09-23T03:48:02.929Z,5.56
2022-09-23T03:53:05.285Z,5.59
2022-09-23T03:58:08.158Z,5.62
2022-09-23T04:03:11.944Z,5.70
2022-09-23T04:08:14.453Z,5.78
2022-09-23T04:13:17.080Z,5.72
2022-09-23T04:18:19.590Z,5.62
2022-09-23T04:23:21.932Z,5.57
2022-09-23T04:28:24.389Z,5.62
2022-09-23T04:33:26.752Z,5.74
2022-09-23T04:38:29.962Z,5.91
2022-09-23T04:43:32.323Z,6.11
2022-09-23T04:48:36.940Z,6.31
2022-09-23T04:53:40.295Z,6.47
2022-09-23T04:58:43.316Z,6.63
2022-09-23T05:03:46.281Z,6.75
2022-09-23T05:08:50.236Z,6.79
2022-09-23T05:13:53.529Z,6.91
2022-09-23T05:18:56.224Z,6.98
2022-09-23T05:24:00.533Z,7.06
2022-09-23T05:29:03.064Z,7.14
2022-09-23T05:34:05.882Z,7.19
2022-09-23T05:39:08.824Z,7.28
2022-09-23T05:44:11.464Z,7.48
2022-09-23T05:49:13.855Z,7.65
2022-09-23T05:54:16.397Z,7.71
2022-09-23T05:59:19.018Z,7.80
2022-09-23T06:04:21.414Z,8.01
2022-09-23T06:09:23.809Z,8.26
2022-09-23T06:14:26.210Z,8.47
2022-09-23T06:19:28.683Z,8.73
2022-09-23T06:24:31.910Z,8.85
2022-09-23T06:29:34.405Z,8.96
2022-09-23T06:34:47.822Z,9.18
2022-09-23T06:39:54.709Z,9.37
2022-09-23T06:44:57.198Z,9.49
2022-09-23T06:49:59.735Z,9.78
2022-09-23T06:55:02.279Z,10.16
2022-09-23T07:00:05.440Z,10.23
2022-09-23T07:05:09.436Z,10.26
2022-09-23T07:10:11.953Z,10.40
2022-09-23T07:15:16.108Z,10.54
2022-09-23T07:20:18.673Z,10.68
2022-09-23T07:25:21.227Z,10.72
2022-09-23T07:30:25.502Z,10.63
2022-09-23T07:35:28.266Z,10.55
2022-09-23T07:40:30.854Z,10.71
2022-09-23T07:45:34.142Z,10.89
2022-09-23T07:50:38.533Z,11.23
2022-09-23T07:55:59.393Z,11.58
2022-09-23T08:01:10.424Z,11.86
2022-09-23T08:06:13.773Z,12.19
2022-09-23T08:11:16.291Z,12.65
2022-09-23T08:16:19.246Z,12.94
2022-09-23T08:21:22.491Z,13.40
2022-09-23T08:26:25.079Z,13.72
2022-09-23T08:31:27.659Z,13.73
2022-09-23T08:36:31.157Z,13.67
2022-09-23T08:41:36.554Z,13.72
2022-09-23T08:46:42.211Z,13.73
2022-09-23T08:51:46.454Z,13.75
2022-09-23T08:56:51.319Z,13.91
2022-09-23T09:01:58.042Z,14.09
2022-09-23T09:12:33.235Z,14.26
2022-09-23T09:17:38.306Z,14.38
2022-09-23T09:22:43.712Z,14.48
2022-09-23T09:27:47.517Z,14.54
2022-09-23T09:32:52.939Z,14.66
2022-09-23T09:37:55.884Z,14.85
2022-09-23T09:42:58.422Z,14.92
2022-09-23T09:48:06.406Z,14.94
2022-09-23T09:53:11.736Z,15.07
2022-09-23T09:58:16.411Z,15.17
2022-09-23T10:03:24.303Z,15.10
2022-09-23T10:08:31.784Z,15.29
2022-09-23T10:13:34.269Z,15.53
2022-09-23T10:18:37.432Z,15.79
2022-09-23T10:23:41.764Z,16.14
2022-09-23T10:28:47.001Z,16.82
2022-09-23T10:33:50.686Z,17.77
2022-09-23T10:39:16.597Z,18.17
2022-09-23T10:44:29.689Z,17.49
2022-09-23T10:49:35.560Z,16.83
2022-09-23T10:54:40.929Z,16.34
2022-09-23T10:59:51.615Z,16.27
2022-09-23T11:11:34.073Z,16.95
2022-09-23T11:16:39.153Z,17.41
2022-09-23T11:21:44.673Z,17.54
2022-09-23T11:26:55.537Z,17.58
2022-09-23T11:32:01.072Z,17.67
2022-09-23T11:37:07.160Z,17.43
2022-09-23T11:42:14.584Z,16.91
2022-09-23T11:47:21.755Z,16.24
2022-09-23T11:52:24.216Z,15.57
2022-09-23T11:57:49.492Z,14.98
2022-09-23T12:03:04.548Z,14.49
2022-09-23T12:08:10.793Z,14.13
2022-09-23T12:13:19.314Z,13.82
2022-09-23T12:18:35.823Z,13.67
2022-09-23T12:23:38.270Z,13.60
2022-09-23T12:28:44.435Z,13.57
2022-09-23T12:33:50.230Z,13.61
2022-09-23T12:38:56.060Z,13.68
2022-09-23T12:44:01.521Z,13.86
2022-09-23T12:49:05.201Z,14.07
2022-09-23T12:54:10.665Z,14.38
2022-09-23T12:59:16.051Z,14.72
2022-09-23T13:04:24.348Z,15.12
2022-09-23T13:09:29.034Z,15.53
2022-09-23T13:14:32.728Z,15.85
2022-09-23T13:19:38.666Z,15.91
2022-09-23T13:24:43.179Z,15.83
2022-09-23T13:30:06.001Z,15.87
2022-09-23T13:35:11.498Z,16.08
2022-09-23T13:40:17.412Z,16.33
2022-09-23T13:45:21.842Z,16.62
2022-09-23T13:50:24.706Z,17.06
2022-09-23T13:55:31.072Z,17.33
2022-09-23T14:00:35.837Z,17.64
2022-09-23T14:05:38.449Z,17.76
2022-09-23T14:10:44.967Z,17.48
2022-09-23T14:15:48.551Z,17.52
2022-09-23T14:20:51.025Z,17.97
2022-09-23T14:25:54.372Z,18.27
2022-09-23T14:30:58.385Z,18.06
2022-09-23T14:36:06.623Z,17.98
2022-09-23T14:41:21.764Z,18.11
2022-09-23T14:46:26.085Z,18.03
2022-09-23T14:51:31.470Z,17.56
2022-09-23T14:56:41.241Z,17.06
2022-09-23T15:01:43.850Z,16.25
2022-09-23T15:06:49.810Z,15.66
2022-09-23T15:11:54.061Z,15.32
2022-09-23T15:16:56.846Z,15.08
2022-09-23T15:21:59.942Z,14.82
2022-09-23T15:27:02.567Z,14.67
2022-09-23T15:32:08.524Z,14.63
2022-09-23T15:37:12.579Z,14.57
2022-09-23T15:42:15.018Z,14.49
2022-09-23T15:47:18.620Z,14.41
2022-09-23T15:52:22.761Z,14.39
2022-09-23T15:57:25.984Z,14.36
2022-09-23T16:02:28.911Z,14.32
2022-09-23T16:07:31.484Z,14.22
2022-09-23T16:12:33.989Z,14.09
2022-09-23T16:17:36.619Z,13.89
2022-09-23T16:22:39.191Z,13.68
2022-09-23T16:27:41.657Z,13.48
2022-09-23T16:32:44.185Z,13.29
2022-09-23T16:37:49.668Z,13.18
2022-09-23T16:42:54.171Z,13.04
2022-09-23T16:47:56.860Z,12.94
2022-09-23T16:52:59.363Z,12.89
2022-09-23T16:58:01.849Z,12.82
2022-09-23T17:03:07.795Z,12.74
2022-09-23T17:08:13.237Z,12.69
2022-09-23T17:13:16.625Z,12.67
2022-09-23T17:18:20.637Z,12.66
2022-09-23T17:23:23.089Z,12.61
2022-09-23T17:28:25.722Z,12.61
2022-09-23T17:33:29.571Z,12.57
2022-09-23T17:38:33.040Z,12.52
2022-09-23T17:43:36.160Z,12.45
2022-09-23T17:48:41.270Z,12.45
2022-09-23T17:53:45.302Z,12.47
2022-09-23T17:58:48.825Z,12.43
2022-09-23T18:03:54.590Z,12.39
2022-09-23T18:08:58.500Z,12.28
2022-09-23T18:14:03.171Z,12.15
2022-09-23T18:19:06.251Z,12.09
2022-09-23T18:24:31.349Z,12.09
2022-09-23T18:29:32.913Z,12.08
2022-09-23T18:34:35.390Z,12.03
2022-09-23T18:39:38.146Z,11.94
2022-09-23T18:44:40.688Z,11.92
2022-09-23T18:49:46.209Z,11.92
2022-09-23T18:54:52.984Z,11.90
2022-09-23T18:59:57.455Z,11.87
2022-09-23T19:04:59.918Z,11.87
2022-09-23T19:10:02.428Z,11.88
2022-09-23T19:15:05.570Z,11.90
2022-09-23T19:20:08.397Z,11.92
2022-09-23T19:25:11.142Z,11.93
2022-09-23T19:30:13.639Z,11.93
2022-09-23T19:35:16.143Z,11.92
2022-09-23T19:40:19.487Z,11.91
2022-09-23T19:45:22.540Z,11.91
2022-09-23T19:50:25.087Z,11.88
2022-09-23T19:55:28.385Z,11.85
2022-09-23T20:00:31.489Z,11.81
2022-09-23T20:05:33.977Z,11.79
2022-09-23T20:10:38.120Z,11.81
2022-09-23T20:15:40.620Z,11.80
2022-09-23T20:20:43.254Z,11.76
2022-09-23T20:25:57.367Z,11.72
2022-09-23T20:30:59.963Z,11.63
2022-09-23T20:36:02.651Z,11.54
2022-09-23T20:41:06.272Z,11.49
2022-09-23T20:46:09.070Z,11.46
2022-09-23T20:51:11.727Z,11.43
2022-09-23T20:56:15.401Z,11.46
2022-09-23T21:01:18.981Z,11.45
2022-09-23T21:06:25.082Z,11.39
2022-09-23T21:11:29.086Z,11.40
2022-09-23T21:16:31.720Z,11.46
2022-09-23T21:21:34.663Z,11.51
2022-09-23T21:26:37.276Z,11.53
2022-09-23T21:31:40.038Z,11.49
2022-09-23T21:36:44.093Z,11.47
2022-09-23T21:41:46.655Z,11.46
2022-09-23T21:46:49.202Z,11.47
2022-09-23T21:51:55.087Z,11.45
2022-09-23T21:56:57.620Z,11.40
2022-09-23T22:02:00.143Z,11.36
2022-09-23T22:07:03.272Z,11.31
2022-09-23T22:12:07.716Z,11.26
2022-09-23T22:17:12.237Z,11.22
2022-09-23T22:22:15.634Z,11.11
2022-09-23T22:27:18.984Z,10.97
2022-09-23T22:32:24.567Z,10.87
2022-09-23T22:37:28.436Z,10.83
2022-09-23T22:42:30.911Z,10.79
2022-09-23T22:47:37.035Z,10.70
2022-09-23T22:52:40.386Z,10.55
2022-09-23T22:57:42.906Z,10.46
2022-09-23T23:02:45.417Z,10.43
2022-09-23T23:07:48.020Z,10.41
2022-09-23T23:12:52.181Z,10.38
2022-09-23T23:17:59.184Z,10.32
2022-09-23T23:23:02.383Z,10.28
2022-09-23T23:28:05.885Z,10.24
2022-09-23T23:33:08.459Z,10.17
2022-09-23T23:38:11.220Z,10.10
2022-09-23T23:43:14.810Z,10.01
2022-09-23T23:48:18.368Z,9.93
2022-09-23T23:53:21.750Z,9.87
2022-09-23T23:58:24.264Z,9.80
